createdAt,value
2019-01-21T00:01:22.486Z,99.90
2019-01-21T00:03:52.626Z,99.90
2019-01-21T00:06:22.513Z,99.90
2019-01-21T00:08:52.266Z,99.90
2019-01-21T00:11:22.159Z,99.90
2019-01-21T00:13:52.147Z,99.90
2019-01-21T00:16:22.388Z,99.90
2019-01-21T00:18:52.483Z,99.90
2019-01-21T00:21:21.987Z,99.90
2019-01-21T00:23:51.908Z,99.90
2019-01-21T00:26:21.714Z,99.90
2019-01-21T00:28:51.668Z,99.90
2019-01-21T00:31:21.427Z,99.90
2019-01-21T00:33:50.937Z,99.90
2019-01-21T00:36:20.649Z,99.90
2019-01-21T00:38:50.347Z,99.90
2019-01-21T00:41:20.111Z,99.90
2019-01-21T00:43:49.778Z,99.90
2019-01-21T00:46:19.582Z,99.90
2019-01-21T00:48:49.290Z,99.90
2019-01-21T00:51:18.729Z,99.90
2019-01-21T00:53:48.502Z,99.90
2019-01-21T00:56:18.668Z,99.90
2019-01-21T00:58:48.532Z,99.90
2019-01-21T01:01:18.302Z,99.90
2019-01-21T01:03:48.046Z,99.90
2019-01-21T01:06:17.582Z,99.90
2019-01-21T01:08:47.564Z,99.90
2019-01-21T01:11:17.481Z,99.90
2019-01-21T01:13:47.581Z,99.90
2019-01-21T01:16:17.612Z,99.90
2019-01-21T01:18:47.228Z,99.90
2019-01-21T01:21:16.746Z,99.90
2019-01-21T01:23:46.858Z,99.90
2019-01-21T01:26:16.653Z,99.90
2019-01-21T01:28:46.355Z,99.90
2019-01-21T01:31:16.026Z,99.90
2019-01-21T01:33:45.825Z,99.90
2019-01-21T01:36:15.538Z,99.90
2019-01-21T01:38:45.089Z,99.90
2019-01-21T01:41:15.061Z,99.90
2019-01-21T01:43:44.940Z,99.90
2019-01-21T01:46:14.458Z,99.90
2019-01-21T01:48:44.342Z,99.90
2019-01-21T01:51:14.136Z,99.90
2019-01-21T01:53:43.980Z,99.90
2019-01-21T01:56:13.879Z,99.90
2019-01-21T01:58:43.500Z,99.90
2019-01-21T02:01:13.376Z,99.90
2019-01-21T02:03:43.500Z,99.90
2019-01-21T02:06:12.999Z,99.90
2019-01-21T02:08:42.602Z,99.90
2019-01-21T02:11:12.539Z,99.90
2019-01-21T02:13:42.311Z,99.90
2019-01-21T02:16:12.537Z,99.90
2019-01-21T02:18:42.419Z,99.90
2019-01-21T02:21:12.296Z,99.90
2019-01-21T02:23:46.142Z,99.90
2019-01-21T02:26:20.099Z,99.90
2019-01-21T02:29:03.422Z,99.90
2019-01-21T02:32:07.982Z,99.90
2019-01-21T02:35:23.694Z,99.90
2019-01-21T02:38:38.891Z,99.90
2019-01-21T02:42:05.696Z,99.90
2019-01-21T02:45:18.368Z,99.90
2019-01-21T02:48:19.551Z,99.90
2019-01-21T02:51:15.826Z,99.90
2019-01-21T02:54:01.735Z,99.90
2019-01-21T02:57:21.009Z,99.90
2019-01-21T03:00:19.030Z,99.90
2019-01-21T03:03:15.115Z,99.90
2019-01-21T03:06:28.619Z,99.90
2019-01-21T03:09:50.268Z,99.90
2019-01-21T03:12:48.897Z,99.90
2019-01-21T03:16:07.182Z,99.90
2019-01-21T03:18:53.877Z,99.90
2019-01-21T03:21:46.016Z,99.90
2019-01-21T03:24:32.576Z,99.90
2019-01-21T03:27:52.299Z,99.90
2019-01-21T03:30:47.299Z,99.90
2019-01-21T03:34:01.263Z,99.90
2019-01-21T03:37:09.144Z,99.90
2019-01-21T03:40:12.951Z,99.90
2019-01-21T03:43:16.755Z,99.90
2019-01-21T03:46:33.348Z,99.90
2019-01-21T03:49:10.141Z,99.90
2019-01-21T03:52:27.798Z,99.90
2019-01-21T03:55:03.374Z,99.90
2019-01-21T03:58:11.728Z,99.90
2019-01-21T04:01:05.451Z,99.90
2019-01-21T04:04:05.930Z,99.90
2019-01-21T04:07:18.472Z,99.90
2019-01-21T04:10:16.391Z,99.90
2019-01-21T04:13:10.011Z,99.90
2019-01-21T04:16:05.930Z,99.90
2019-01-21T04:18:58.610Z,99.90
2019-01-21T04:22:00.404Z,99.90
2019-01-21T04:25:17.420Z,99.90
2019-01-21T04:28:16.391Z,99.90
2019-01-21T04:31:44.382Z,99.90
2019-01-21T04:34:55.731Z,99.90
2019-01-21T04:38:09.349Z,99.90
2019-01-21T04:41:23.088Z,99.90
2019-01-21T04:44:48.076Z,99.90
2019-01-21T04:47:51.885Z,99.90
2019-01-21T04:50:50.744Z,99.90
2019-01-21T04:53:48.714Z,99.90
2019-01-21T04:56:45.764Z,99.90
2019-01-21T05:00:09.754Z,99.90
2019-01-21T05:03:22.176Z,99.90
2019-01-21T05:06:04.608Z,99.90
2019-01-21T05:09:21.570Z,99.90
2019-01-21T05:12:34.596Z,99.90
2019-01-21T05:15:56.629Z,99.90
2019-01-21T05:19:13.388Z,99.90
2019-01-21T05:22:27.530Z,99.90
2019-01-21T05:25:27.882Z,99.90
2019-01-21T05:28:47.400Z,99.90
2019-01-21T05:31:34.251Z,99.90
2019-01-21T05:34:47.860Z,99.90
2019-01-21T05:38:02.860Z,99.90
2019-01-21T05:41:10.704Z,99.90
2019-01-21T05:44:15.463Z,99.90
2019-01-21T05:47:30.219Z,99.90
2019-01-21T05:50:34.925Z,99.90
2019-01-21T05:53:42.828Z,99.90
2019-01-21T05:56:46.125Z,99.90
2019-01-21T05:59:48.289Z,99.90
2019-01-21T06:02:53.232Z,99.90
2019-01-21T06:06:13.844Z,99.90
2019-01-21T06:09:26.764Z,99.90
2019-01-21T06:12:06.763Z,99.90
2019-01-21T06:15:23.443Z,99.90
2019-01-21T06:18:19.004Z,99.90
2019-01-21T06:21:29.506Z,99.90
2019-01-21T06:24:28.362Z,99.90
2019-01-21T06:27:34.035Z,99.90
2019-01-21T06:30:28.720Z,99.90
2019-01-21T06:33:28.143Z,99.90
2019-01-21T06:36:28.117Z,99.90
2019-01-21T06:39:37.365Z,99.90
2019-01-21T06:42:25.959Z,99.90
2019-01-21T06:45:38.711Z,99.90
2019-01-21T06:52:18.404Z,99.90
2019-01-21T06:55:32.317Z,99.90
2019-01-21T06:58:33.756Z,99.90
2019-01-21T07:01:46.320Z,99.90
2019-01-21T07:04:46.236Z,99.90
2019-01-21T07:07:56.115Z,99.90
2019-01-21T07:10:39.039Z,99.90
2019-01-21T07:14:02.195Z,99.90
2019-01-21T07:16:57.803Z,99.90
2019-01-21T07:20:24.198Z,99.90
2019-01-21T07:23:23.314Z,99.90
2019-01-21T07:26:36.154Z,99.90
2019-01-21T07:30:08.314Z,99.90
2019-01-21T07:33:10.355Z,99.90
2019-01-21T07:36:30.398Z,99.90
2019-01-21T07:39:39.814Z,99.90
2019-01-21T07:42:40.877Z,99.90
2019-01-21T07:45:48.875Z,99.90
2019-01-21T07:48:52.045Z,99.90
2019-01-21T07:51:52.649Z,99.90
2019-01-21T07:54:32.579Z,99.90
2019-01-21T07:57:55.472Z,99.90
2019-01-21T08:00:41.234Z,99.90
2019-01-21T08:03:57.227Z,99.90
2019-01-21T08:07:05.251Z,99.90
2019-01-21T08:10:14.478Z,99.90
2019-01-21T08:13:29.846Z,99.90
2019-01-21T08:16:47.189Z,99.90
2019-01-21T08:20:06.874Z,99.90
2019-01-21T08:23:33.761Z,99.90
2019-01-21T08:26:25.473Z,99.90
2019-01-21T08:29:13.160Z,99.90
2019-01-21T08:32:22.379Z,99.90
2019-01-21T08:35:20.264Z,99.90
2019-01-21T08:38:43.831Z,99.90
2019-01-21T08:41:51.750Z,99.90
2019-01-21T08:44:58.405Z,99.90
2019-01-21T08:47:51.152Z,99.90
2019-01-21T08:51:04.675Z,99.90
2019-01-21T08:53:55.590Z,99.90
2019-01-21T08:56:47.914Z,99.90
2019-01-21T08:59:56.108Z,99.90
2019-01-21T09:03:03.947Z,99.90
2019-01-21T09:06:02.671Z,99.90
2019-01-21T09:08:56.794Z,99.90
2019-01-21T09:12:40.191Z,99.90
2019-01-21T09:15:43.983Z,99.90
2019-01-21T09:19:09.561Z,99.90
2019-01-21T09:21:58.348Z,99.90
2019-01-21T09:24:58.231Z,99.90
2019-01-21T09:28:17.467Z,99.90
2019-01-21T09:31:25.227Z,99.90
2019-01-21T09:34:45.271Z,99.90
2019-01-21T09:37:40.348Z,99.90
2019-01-21T09:40:42.152Z,99.90
2019-01-21T09:43:55.880Z,99.90
2019-01-21T09:46:46.285Z,99.90
2019-01-21T09:49:14.238Z,99.90
2019-01-21T09:52:07.469Z,99.90
2019-01-21T09:54:39.026Z,99.90
2019-01-21T09:57:34.257Z,99.90
2019-01-21T10:00:06.396Z,99.90
2019-01-21T10:02:48.987Z,99.90
2019-01-21T10:05:19.587Z,99.90
2019-01-21T10:08:06.809Z,99.90
2019-01-21T10:11:03.367Z,99.90
2019-01-21T10:14:18.389Z,99.90
2019-01-21T10:17:10.414Z,99.90
2019-01-21T10:20:03.506Z,99.90
2019-01-21T10:23:15.625Z,99.90
2019-01-21T10:26:00.228Z,99.90
2019-01-21T10:29:41.513Z,99.90
2019-01-21T10:32:51.671Z,99.90
2019-01-21T10:35:58.050Z,99.90
2019-01-21T10:39:11.423Z,99.90
2019-01-21T10:42:15.584Z,99.90
2019-01-21T10:45:18.268Z,99.90
2019-01-21T10:48:15.418Z,99.90
2019-01-21T10:51:17.719Z,99.90
2019-01-21T10:54:19.650Z,99.90
2019-01-21T10:57:20.384Z,99.90
2019-01-21T11:00:29.931Z,99.90
2019-01-21T11:03:40.697Z,99.90
2019-01-21T11:06:54.028Z,99.90
2019-01-21T11:10:04.491Z,99.90
2019-01-21T11:12:54.741Z,99.90
2019-01-21T11:15:39.262Z,99.90
2019-01-21T11:18:21.863Z,99.90
2019-01-21T11:21:29.180Z,99.90
2019-01-21T11:24:35.707Z,99.90
2019-01-21T11:27:41.869Z,99.90
2019-01-21T11:30:23.664Z,99.90
2019-01-21T11:33:11.908Z,99.90
2019-01-21T11:36:31.885Z,99.90
2019-01-21T11:39:45.319Z,99.90
2019-01-21T11:43:01.757Z,99.00
2019-01-21T11:45:56.414Z,98.50
2019-01-21T11:49:11.382Z,97.90
2019-01-21T11:52:26.554Z,97.80
2019-01-21T11:55:46.135Z,97.60
2019-01-21T11:58:51.783Z,98.80
2019-01-21T12:02:14.948Z,99.20
2019-01-21T12:04:53.956Z,96.90
2019-01-21T12:08:22.870Z,96.10
2019-01-21T12:11:41.656Z,97.50
2019-01-21T12:15:00.923Z,97.10
2019-01-21T12:18:11.785Z,97.40
2019-01-21T12:21:25.926Z,95.30
2019-01-21T12:24:35.664Z,95.40
2019-01-21T12:27:58.540Z,96.60
2019-01-21T12:30:49.423Z,96.70
2019-01-21T12:33:55.296Z,95.40
2019-01-21T12:36:58.577Z,94.30
2019-01-21T12:39:50.425Z,94.30
2019-01-21T12:43:25.465Z,95.60
2019-01-21T12:46:06.018Z,95.10
2019-01-21T12:49:17.894Z,94.10
2019-01-21T12:52:27.857Z,95.70
2019-01-21T12:55:34.939Z,95.10
2019-01-21T12:58:20.064Z,95.30
2019-01-21T13:01:21.016Z,94.10
2019-01-21T13:04:14.777Z,93.20
2019-01-21T13:07:34.937Z,92.40
2019-01-21T13:10:48.628Z,91.40
2019-01-21T13:14:14.908Z,92.60
2019-01-21T13:17:08.859Z,94.10
2019-01-21T13:20:21.463Z,93.10
2019-01-21T13:23:47.391Z,93.00
2019-01-21T13:26:44.894Z,92.20
2019-01-21T13:29:51.253Z,93.00
2019-01-21T13:32:55.638Z,92.90
2019-01-21T13:36:03.791Z,92.50
2019-01-21T13:39:22.694Z,94.00
2019-01-21T13:42:30.253Z,95.10
2019-01-21T13:45:38.825Z,96.70
2019-01-21T13:48:59.011Z,96.50
2019-01-21T13:52:15.981Z,97.00
2019-01-21T13:54:59.582Z,97.50
2019-01-21T13:57:57.495Z,98.60
2019-01-21T14:00:44.185Z,98.10
2019-01-21T14:04:13.155Z,99.20
2019-01-21T14:07:17.896Z,99.30
2019-01-21T14:10:18.611Z,99.90
2019-01-21T14:13:01.212Z,99.90
2019-01-21T14:15:41.773Z,99.90
2019-01-21T14:19:01.757Z,99.90
2019-01-21T14:22:17.542Z,99.90
2019-01-21T14:25:20.059Z,99.90
2019-01-21T14:28:20.756Z,99.90
2019-01-21T14:31:03.495Z,99.90
2019-01-21T14:34:03.489Z,99.90
2019-01-21T14:37:00.850Z,99.90
2019-01-21T14:39:46.974Z,99.90
2019-01-21T14:42:58.433Z,99.90
2019-01-21T14:46:00.968Z,99.90
2019-01-21T14:49:04.872Z,99.90
2019-01-21T14:52:11.588Z,99.90
2019-01-21T14:55:34.038Z,99.90
2019-01-21T14:58:29.683Z,99.90
2019-01-21T15:01:42.375Z,99.90
2019-01-21T15:04:49.369Z,99.90
2019-01-21T15:07:46.400Z,99.90
2019-01-21T15:10:48.558Z,99.90
2019-01-21T15:13:50.462Z,99.90
2019-01-21T15:16:36.127Z,99.90
2019-01-21T15:19:29.329Z,99.90
2019-01-21T15:22:28.602Z,99.90
2019-01-21T15:25:22.936Z,99.90
2019-01-21T15:28:42.381Z,99.90
2019-01-21T15:31:56.680Z,99.90
2019-01-21T15:34:48.679Z,99.90
2019-01-21T15:37:53.944Z,99.90
2019-01-21T15:40:58.029Z,99.90
2019-01-21T15:43:45.450Z,99.90
2019-01-21T15:46:41.264Z,99.90
2019-01-21T15:49:29.922Z,99.90
2019-01-21T15:52:19.598Z,99.90
2019-01-21T15:55:19.813Z,99.90
2019-01-21T15:58:18.755Z,99.90
2019-01-21T16:00:53.644Z,99.90
2019-01-21T16:03:44.049Z,99.90
2019-01-21T16:06:45.736Z,99.90
2019-01-21T16:09:58.934Z,99.90
2019-01-21T16:13:01.267Z,99.90
2019-01-21T16:15:56.228Z,99.90
2019-01-21T16:18:57.103Z,99.90
2019-01-21T16:22:03.124Z,99.90
2019-01-21T16:24:46.683Z,99.90
2019-01-21T16:27:40.636Z,99.90
2019-01-21T16:30:37.331Z,99.90
2019-01-21T16:33:25.084Z,99.90
2019-01-21T16:36:21.140Z,99.90
2019-01-21T16:39:35.291Z,99.90
2019-01-21T16:42:15.431Z,99.90
2019-01-21T16:44:47.161Z,99.90
2019-01-21T16:47:16.933Z,99.90
2019-01-21T16:49:46.469Z,99.90
2019-01-21T16:52:16.683Z,99.90
2019-01-21T16:54:46.447Z,99.90
2019-01-21T16:57:16.203Z,99.90
2019-01-21T16:59:45.991Z,99.90
2019-01-21T17:02:15.368Z,99.90
2019-01-21T17:04:45.422Z,99.90
2019-01-21T17:07:15.892Z,99.90
2019-01-21T17:09:46.084Z,99.90
2019-01-21T17:12:16.088Z,99.90
2019-01-21T17:14:45.847Z,99.90
2019-01-21T17:17:16.454Z,99.90
2019-01-21T17:19:46.329Z,99.90
2019-01-21T17:22:16.187Z,99.90
2019-01-21T17:24:46.088Z,99.90
2019-01-21T17:27:16.320Z,99.90
2019-01-21T17:29:46.202Z,99.90
2019-01-21T17:32:16.600Z,99.90
2019-01-21T17:34:46.205Z,99.90
2019-01-21T17:37:15.842Z,99.90
2019-01-21T17:39:45.490Z,99.90
2019-01-21T17:42:15.249Z,99.90
2019-01-21T17:44:45.524Z,99.90
2019-01-21T17:47:15.723Z,99.90
2019-01-21T17:49:45.360Z,99.90
2019-01-21T17:52:15.139Z,99.90
2019-01-21T17:54:44.850Z,99.90
2019-01-21T17:57:15.070Z,99.90
2019-01-21T17:59:44.775Z,99.90
2019-01-21T18:02:14.893Z,99.90
2019-01-21T18:04:44.645Z,99.90
2019-01-21T18:07:14.737Z,99.90
2019-01-21T18:09:44.777Z,99.90
2019-01-21T18:12:14.888Z,99.90
2019-01-21T18:14:44.688Z,99.90
2019-01-21T18:17:14.797Z,99.90
2019-01-21T18:19:44.757Z,99.90
2019-01-21T18:22:14.520Z,99.90
2019-01-21T18:24:45.601Z,99.90
2019-01-21T18:27:15.488Z,99.90
2019-01-21T18:29:45.881Z,99.90
2019-01-21T18:32:15.800Z,99.90
2019-01-21T18:35:01.223Z,99.90
2019-01-21T18:37:31.185Z,99.90
2019-01-21T18:40:01.215Z,99.90
2019-01-21T18:42:30.958Z,99.90
2019-01-21T18:45:00.837Z,99.90
2019-01-21T18:47:30.719Z,99.90
2019-01-21T18:50:00.215Z,99.90
2019-01-21T18:52:30.199Z,99.90
2019-01-21T18:55:00.252Z,99.90
2019-01-21T18:57:30.261Z,99.90
2019-01-21T19:00:00.230Z,99.90
2019-01-21T19:02:30.000Z,99.90
2019-01-21T19:05:00.020Z,99.90
2019-01-21T19:07:29.995Z,99.90
2019-01-21T19:10:00.156Z,99.90
2019-01-21T19:12:30.721Z,99.90
2019-01-21T19:15:00.901Z,99.90
2019-01-21T19:17:30.857Z,99.90
2019-01-21T19:20:00.847Z,99.90
2019-01-21T19:22:30.836Z,99.90
2019-01-21T19:25:01.097Z,99.90
2019-01-21T19:27:31.141Z,99.90
2019-01-21T19:30:01.435Z,99.90
2019-01-21T19:32:31.519Z,99.90
2019-01-21T19:35:01.092Z,99.90
2019-01-21T19:37:31.316Z,99.90
2019-01-21T19:40:01.669Z,99.90
2019-01-21T19:42:31.681Z,99.90
2019-01-21T19:45:01.700Z,99.90
2019-01-21T19:47:31.688Z,99.90
2019-01-21T19:50:01.264Z,99.90
2019-01-21T19:52:30.959Z,99.90
2019-01-21T19:55:01.050Z,99.90
2019-01-21T19:57:30.782Z,99.90
2019-01-21T20:00:00.785Z,99.90
2019-01-21T20:02:31.200Z,99.90
2019-01-21T20:05:01.228Z,99.90
2019-01-21T20:07:31.443Z,99.90
2019-01-21T20:10:01.509Z,99.90
2019-01-21T20:12:31.556Z,99.90
2019-01-21T20:15:01.800Z,99.90
2019-01-21T20:17:31.707Z,99.90
2019-01-21T20:20:02.223Z,99.90
2019-01-21T20:22:31.312Z,99.90
2019-01-21T20:25:01.196Z,99.90
2019-01-21T20:27:31.192Z,99.90
2019-01-21T20:30:01.334Z,99.90
2019-01-21T20:32:31.395Z,99.90
2019-01-21T20:35:01.594Z,99.90
2019-01-21T20:37:31.678Z,99.90
2019-01-21T20:40:02.158Z,99.90
2019-01-21T20:42:32.479Z,99.90
2019-01-21T20:45:02.478Z,99.90
2019-01-21T20:47:32.397Z,99.90
2019-01-21T20:50:01.990Z,99.90
2019-01-21T20:52:32.109Z,99.90
2019-01-21T20:55:02.226Z,99.90
2019-01-21T20:57:32.143Z,99.90
2019-01-21T21:00:01.951Z,99.90
2019-01-21T21:02:31.682Z,99.90
2019-01-21T21:05:02.289Z,99.90
2019-01-21T21:07:32.418Z,99.90
2019-01-21T21:10:02.397Z,99.90
2019-01-21T21:12:32.872Z,99.90
2019-01-21T21:15:03.413Z,99.90
2019-01-21T21:17:33.472Z,99.90
2019-01-21T21:20:03.494Z,99.90
2019-01-21T21:22:33.475Z,99.90
2019-01-21T21:25:03.593Z,99.90
2019-01-21T21:27:33.589Z,99.90
2019-01-21T21:30:03.468Z,99.90
2019-01-21T21:32:33.593Z,99.90
2019-01-21T21:35:04.072Z,99.90
2019-01-21T21:37:34.313Z,99.90
2019-01-21T21:40:05.420Z,99.90
2019-01-21T21:42:36.107Z,99.90
2019-01-21T21:45:07.193Z,99.90
2019-01-21T21:47:37.435Z,99.90
2019-01-21T21:50:11.281Z,99.90
2019-01-21T21:52:41.684Z,99.90
2019-01-21T21:55:12.351Z,99.90
2019-01-21T21:57:42.365Z,99.90
2019-01-21T22:00:15.949Z,99.90
2019-01-21T22:02:46.206Z,99.90
2019-01-21T22:05:16.888Z,99.90
2019-01-21T22:07:46.906Z,99.90
2019-01-21T22:10:19.772Z,99.90
2019-01-21T22:12:50.665Z,99.90
2019-01-21T22:15:22.072Z,99.90
2019-01-21T22:17:52.186Z,99.90
2019-01-21T22:20:23.431Z,99.90
2019-01-21T22:22:53.301Z,99.90
2019-01-21T22:25:23.629Z,99.90
2019-01-21T22:27:53.630Z,99.90
2019-01-21T22:30:25.207Z,99.90
2019-01-21T22:32:55.265Z,99.90
2019-01-21T22:35:25.554Z,99.90
2019-01-21T22:37:55.580Z,99.90
2019-01-21T22:40:25.822Z,99.90
2019-01-21T22:42:56.058Z,99.90
2019-01-21T22:45:25.940Z,99.90
2019-01-21T22:47:55.785Z,99.90
2019-01-21T22:50:25.667Z,99.90
2019-01-21T22:52:55.672Z,99.90
2019-01-21T22:55:25.681Z,99.90
2019-01-21T22:57:55.689Z,99.90
2019-01-21T23:00:56.051Z,99.90
2019-01-21T23:03:27.105Z,99.90
2019-01-21T23:05:57.322Z,99.90
2019-01-21T23:08:27.400Z,99.90
2019-01-21T23:10:57.710Z,99.90
2019-01-21T23:13:27.732Z,99.90
2019-01-21T23:15:57.839Z,99.90
2019-01-21T23:18:27.474Z,99.90
2019-01-21T23:20:57.123Z,99.90
2019-01-21T23:23:26.863Z,99.90
2019-01-21T23:25:56.283Z,99.90
2019-01-21T23:28:26.102Z,99.90
2019-01-21T23:30:56.039Z,99.90
2019-01-21T23:33:25.815Z,99.90
2019-01-21T23:35:55.733Z,99.90
2019-01-21T23:38:25.452Z,99.90
2019-01-21T23:40:55.254Z,99.90
2019-01-21T23:43:24.964Z,99.90
2019-01-21T23:45:55.424Z,99.90
2019-01-21T23:48:24.956Z,99.90
2019-01-21T23:50:55.063Z,99.90
2019-01-21T23:53:24.920Z,99.90
2019-01-21T23:55:54.711Z,99.90
2019-01-21T23:58:24.775Z,99.90
